This is the latest recevied weather packets stored in our database for station/object KE5VT. If no packets are shown the sender has not sent any weather packets the latest 1 day(s).
| Time | Temp. | Humidity | Pressure | Rain* | Wind** | Luminosity | Snow |
|---|---|---|---|---|---|---|---|
| 1778093873 | 24.44° C | 67% | 1009.5 hPa | 0 mm | 0.89 m/s, 221° | 193 W/m² | - |
| 1778093569 | 24.44° C | 65% | 1009.3 hPa | 0 mm | 0 m/s | 205 W/m² | - |
| 1778093266 | 24.44° C | 65% | 1009.4 hPa | 0 mm | 2.68 m/s, 281° | 316 W/m² | - |
| 1778092964 | 23.89° C | 66% | 1009.7 hPa | 0 mm | 0.89 m/s, 173° | 289 W/m² | - |
| 1778092661 | 23.89° C | 65% | 1009.7 hPa | 0 mm | 2.24 m/s, 271° | 432 W/m² | - |
| 1778092361 | 23.89° C | 67% | 1009.7 hPa | 0 mm | 2.24 m/s, 263° | 380 W/m² | - |
| 1778092059 | 23.89° C | 67% | 1009.7 hPa | 0 mm | 0.45 m/s, 251° | 262 W/m² | - |
| 1778091756 | 23.33° C | 68% | 1010 hPa | 0 mm | 1.34 m/s, 266° | 289 W/m² | - |
| 1778091453 | 23.33° C | 67% | 1009.9 hPa | 0 mm | 0 m/s | 216 W/m² | - |
| 1778091151 | 22.78° C | 68% | 1009.9 hPa | 0 mm | 0.45 m/s, 337° | 336 W/m² | - |
| 1778090848 | 22.78° C | 69% | 1010.6 hPa | 0 mm | 3.58 m/s, 279° | 225 W/m² | - |
| 1778090549 | 22.22° C | 71% | 1010.8 hPa | 0 mm | 0.89 m/s, 278° | 172 W/m² | - |
| 1778090245 | 22.22° C | 73% | 1011.2 hPa | 0 mm | 0 m/s | 31 W/m² | - |
| 1778089942 | 22.78° C | 71% | 1010.9 hPa | 0 mm | 1.79 m/s, 301° | 58 W/m² | - |
| 1778089640 | 22.22° C | 72% | 1011 hPa | 0 mm | 0 m/s | 92 W/m² | - |
| 1778089336 | 22.78° C | 73% | 1011 hPa | 0 mm | 0.45 m/s, 126° | 190 W/m² | - |
| 1778089034 | 22.22° C | 72% | 1011 hPa | 0 mm | 1.34 m/s, 212° | 319 W/m² | - |
| 1778088731 | 22.22° C | 73% | 1011.1 hPa | 0 mm | 1.34 m/s, 238° | 199 W/m² | - |
| 1778088428 | 22.22° C | 72% | 1011.1 hPa | 0 mm | 4.02 m/s, 241° | 159 W/m² | - |
| 1778088124 | 22.22° C | 73% | 1011.1 hPa | 0 mm | 1.34 m/s, 255° | 189 W/m² | - |
| 1778087822 | 22.22° C | 72% | 1011.3 hPa | 0 mm | 1.79 m/s, 235° | 174 W/m² | - |
| 1778087519 | 22.22° C | 73% | 1011.2 hPa | 0 mm | 2.24 m/s, 291° | 155 W/m² | - |
| 1778087217 | 21.67° C | 75% | 1011.2 hPa | 0 mm | 0 m/s | 127 W/m² | - |
| 1778086913 | 21.67° C | 75% | 1011.5 hPa | 0 mm | 0.45 m/s, 218° | 142 W/m² | - |
| 1778086612 | 21.67° C | 76% | 1011.2 hPa | 0 mm | 1.79 m/s, 282° | 159 W/m² | - |
* Rain latest hour (hover to see other rain measurements)
** Current wind speed in m/s (hover to see current wind gust speed)